createdAt,value
2018-04-02T00:01:12.937Z,101261.88
2018-04-02T00:03:41.079Z,101253.38
2018-04-02T00:06:09.282Z,101260.08
2018-04-02T00:08:38.165Z,101262.81
2018-04-02T00:11:06.321Z,101259.58
2018-04-02T00:13:34.690Z,101255.69
2018-04-02T00:16:03.697Z,101252.20
2018-04-02T00:18:32.497Z,101252.09
2018-04-02T00:21:01.618Z,101247.02
2018-04-02T00:23:30.885Z,101245.25
2018-04-02T00:25:58.985Z,101249.28
2018-04-02T00:28:27.210Z,101247.81
2018-04-02T00:30:55.315Z,101245.83
2018-04-02T00:33:23.445Z,101242.99
2018-04-02T00:35:52.362Z,101239.04
2018-04-02T00:38:20.949Z,101238.57
2018-04-02T00:40:49.086Z,101235.12
2018-04-02T00:43:17.245Z,101233.36
2018-04-02T00:45:45.319Z,101235.70
2018-04-02T00:48:13.409Z,101230.44
2018-04-02T00:50:46.458Z,101226.84
2018-04-02T00:53:14.559Z,101224.73
2018-04-02T00:55:42.923Z,101225.12
2018-04-02T00:58:11.021Z,101226.09
2018-04-02T01:00:39.164Z,101224.27
2018-04-02T01:03:07.760Z,101222.64
2018-04-02T01:05:35.885Z,101222.50
2018-04-02T01:08:04.006Z,101213.07
2018-04-02T01:10:32.095Z,101212.64
2018-04-02T01:13:00.203Z,101212.59
2018-04-02T01:15:28.919Z,101205.94
2018-04-02T01:17:57.028Z,101198.23
2018-04-02T01:20:25.286Z,101193.58
2018-04-02T01:22:53.394Z,101196.70
2018-04-02T01:25:21.488Z,101194.94
2018-04-02T01:27:49.666Z,101189.80
2018-04-02T01:30:18.207Z,101190.70
2018-04-02T01:32:46.290Z,101186.20
2018-04-02T01:35:14.565Z,101184.88
2018-04-02T01:37:43.445Z,101181.42
2018-04-02T01:40:12.271Z,101181.82
2018-04-02T01:42:40.375Z,101183.51
2018-04-02T01:45:08.472Z,101177.36
2018-04-02T01:47:36.596Z,101179.23
2018-04-02T01:50:04.740Z,101170.20
2018-04-02T01:52:33.510Z,101166.83
2018-04-02T01:55:01.633Z,101164.02
2018-04-02T01:57:29.755Z,101161.89
2018-04-02T01:59:57.863Z,101154.81
2018-04-02T02:02:26.244Z,101151.05
2018-04-02T02:05:09.140Z,101147.63
2018-04-02T02:07:37.371Z,101146.80
2018-04-02T02:10:06.434Z,101142.16
2018-04-02T02:12:34.544Z,101138.28
2018-04-02T02:15:02.690Z,101135.19
2018-04-02T02:17:30.819Z,101128.81
2018-04-02T02:19:58.943Z,101129.36
2018-04-02T02:22:27.265Z,101118.91
2018-04-02T02:24:55.349Z,101121.34
2018-04-02T02:27:23.462Z,101119.00
2018-04-02T02:29:51.561Z,101116.92
2018-04-02T02:32:20.545Z,101113.36
2018-04-02T02:34:48.685Z,101105.91
2018-04-02T02:37:16.862Z,101100.16
2018-04-02T02:39:44.953Z,101094.33
2018-04-02T02:42:13.111Z,101090.78
2018-04-02T02:44:41.231Z,101089.75
2018-04-02T02:47:09.325Z,101081.80
2018-04-02T02:49:37.440Z,101073.91
2018-04-02T02:52:06.468Z,101068.47
2018-04-02T02:54:34.570Z,101068.58
2018-04-02T02:57:02.697Z,101068.16
2018-04-02T02:59:30.807Z,101066.70
2018-04-02T03:01:58.922Z,101069.91
2018-04-02T03:04:27.084Z,101060.68
2018-04-02T03:06:55.203Z,101061.50
2018-04-02T03:09:23.309Z,101056.22
2018-04-02T03:11:51.474Z,101050.82
2018-04-02T03:14:20.452Z,101050.08
2018-04-02T03:16:48.543Z,101043.86
2018-04-02T03:19:16.747Z,101048.27
2018-04-02T03:21:44.889Z,101035.68
2018-04-02T03:24:12.981Z,101025.66
2018-04-02T03:26:41.746Z,101033.22
2018-04-02T03:29:09.891Z,101021.20
2018-04-02T03:31:37.988Z,101021.40
2018-04-02T03:34:06.112Z,101014.31
2018-04-02T03:36:35.026Z,101014.82
2018-04-02T03:39:03.890Z,101010.52
2018-04-02T03:41:32.018Z,101008.95
2018-04-02T03:44:00.104Z,100998.70
2018-04-02T03:46:29.064Z,101001.28
2018-04-02T03:48:59.847Z,100995.84
2018-04-02T03:51:27.986Z,100995.22
2018-04-02T03:53:56.601Z,100992.17
2018-04-02T03:56:24.734Z,100984.62
2018-04-02T03:58:52.859Z,100975.27
2018-04-02T04:01:20.987Z,100982.78
2018-04-02T04:03:49.151Z,100977.27
2018-04-02T04:06:17.307Z,100985.95
2018-04-02T04:08:45.396Z,100982.51
2018-04-02T04:11:13.506Z,100968.44
2018-04-02T04:13:41.622Z,100964.79
2018-04-02T04:16:09.714Z,100964.83
2018-04-02T04:18:38.240Z,100950.44
2018-04-02T04:21:06.348Z,100959.98
2018-04-02T04:23:34.437Z,100964.01
2018-04-02T04:26:02.546Z,100946.20
2018-04-02T04:28:31.413Z,100945.30
2018-04-02T04:30:59.515Z,100940.92
2018-04-02T04:33:28.021Z,100932.43
2018-04-02T04:35:56.693Z,100934.63
2018-04-02T04:38:24.807Z,100922.47
2018-04-02T04:40:52.901Z,100923.02
2018-04-02T04:43:21.037Z,100926.16
2018-04-02T04:45:49.121Z,100922.80
2018-04-02T04:48:17.213Z,100914.39
2018-04-02T04:50:45.338Z,100919.16
2018-04-02T04:53:13.822Z,100909.58
2018-04-02T04:55:41.929Z,100908.98
2018-04-02T04:58:10.066Z,100907.82
2018-04-02T05:00:38.300Z,100901.56
2018-04-02T05:03:06.393Z,100895.14
2018-04-02T05:05:34.521Z,100894.87
2018-04-02T05:08:02.605Z,100898.39
2018-04-02T05:10:30.748Z,100893.23
2018-04-02T05:12:59.377Z,100893.70
2018-04-02T05:15:27.490Z,100890.49
2018-04-02T05:17:55.935Z,100894.66
2018-04-02T05:20:24.034Z,100898.17
2018-04-02T05:22:52.265Z,100896.12
2018-04-02T05:25:20.372Z,100894.27
2018-04-02T05:27:48.462Z,100897.48
2018-04-02T05:30:17.178Z,100900.06
2018-04-02T05:32:45.296Z,100897.67
2018-04-02T05:35:13.402Z,100892.91
2018-04-02T05:37:42.330Z,100885.52
2018-04-02T05:40:10.455Z,100883.29
2018-04-02T05:42:38.571Z,100878.01
2018-04-02T05:45:06.714Z,100873.98
2018-04-02T05:47:34.841Z,100880.00
2018-04-02T05:50:03.792Z,100882.66
2018-04-02T05:52:31.904Z,100874.49
2018-04-02T05:54:59.997Z,100877.63
2018-04-02T05:57:28.152Z,100874.92
2018-04-02T05:59:56.246Z,100876.95
2018-04-02T06:02:24.908Z,100873.64
2018-04-02T06:04:54.019Z,100874.67
2018-04-02T06:07:22.106Z,100868.92
2018-04-02T06:09:50.216Z,100859.83
2018-04-02T06:12:18.341Z,100863.69
2018-04-02T06:14:46.481Z,100862.83
2018-04-02T06:17:15.334Z,100855.75
2018-04-02T06:19:43.463Z,100857.38
2018-04-02T06:22:11.565Z,100844.94
2018-04-02T06:24:39.805Z,100844.69
2018-04-02T06:27:07.910Z,100840.61
2018-04-02T06:29:36.112Z,100837.52
2018-04-02T06:32:04.221Z,100828.25
2018-04-02T06:34:32.422Z,100828.98
2018-04-02T06:37:01.239Z,100829.84
2018-04-02T06:39:29.257Z,100824.38
2018-04-02T06:41:58.165Z,100821.20
2018-04-02T06:44:26.961Z,100823.48
2018-04-02T06:46:55.079Z,100821.55
2018-04-02T06:49:23.502Z,100819.11
2018-04-02T06:51:51.582Z,100817.98
2018-04-02T06:54:19.674Z,100808.92
2018-04-02T06:56:47.861Z,100806.20
2018-04-02T06:59:16.470Z,100805.70
2018-04-02T07:01:44.584Z,100806.03
2018-04-02T07:04:13.146Z,100796.81
2018-04-02T07:06:46.215Z,100796.66
2018-04-02T07:09:14.339Z,100795.57
2018-04-02T07:11:42.478Z,100798.23
2018-04-02T07:14:10.580Z,100799.98
2018-04-02T07:16:38.702Z,100794.16
2018-04-02T07:19:06.826Z,100785.64
2018-04-02T07:21:35.570Z,100779.77
2018-04-02T07:36:53.698Z,100748.30
2018-04-02T07:39:21.806Z,100742.44
2018-04-02T07:41:49.954Z,100744.97
2018-04-02T07:44:18.610Z,100741.73
2018-04-02T07:46:47.256Z,100735.04
2018-04-02T07:49:15.454Z,100730.09
2018-04-02T07:51:43.538Z,100730.52
2018-04-02T07:54:11.681Z,100726.34
2018-04-02T07:56:39.945Z,100723.23
2018-04-02T07:59:08.031Z,100719.97
2018-04-02T08:01:36.156Z,100714.06
2018-04-02T08:04:04.262Z,100714.97
2018-04-02T08:06:32.389Z,100710.82
2018-04-02T08:09:00.517Z,100708.30
2018-04-02T08:11:29.246Z,100707.30
2018-04-02T08:13:58.820Z,100700.94
2018-04-02T08:16:26.972Z,100703.17
2018-04-02T08:18:58.027Z,100704.13
2018-04-02T08:21:26.142Z,100696.88
2018-04-02T08:33:34.279Z,100689.64
2018-04-02T08:36:03.054Z,100676.23
2018-04-02T08:38:31.154Z,100678.69
2018-04-02T08:40:59.505Z,100678.16
2018-04-02T08:43:27.593Z,100668.31
2018-04-02T08:45:55.701Z,100667.79
2018-04-02T08:48:23.822Z,100658.16
2018-04-02T08:50:51.980Z,100650.91
2018-04-02T08:53:20.164Z,100651.13
2018-04-02T08:55:48.290Z,100646.59
2018-04-02T08:58:16.414Z,100649.53
2018-04-02T09:00:44.603Z,100646.34
2018-04-02T09:03:12.669Z,100650.11
2018-04-02T09:05:40.827Z,100649.10
2018-04-02T09:08:08.956Z,100642.55
2018-04-02T09:10:37.064Z,100646.70
2018-04-02T09:13:05.167Z,100645.42
2018-04-02T09:15:33.277Z,100640.87
2018-04-02T09:18:01.377Z,100642.95
2018-04-02T09:20:29.505Z,100637.13
2018-04-02T09:22:57.617Z,100625.78
2018-04-02T09:25:26.520Z,100622.89
2018-04-02T09:27:54.660Z,100617.99
2018-04-02T09:30:23.778Z,100618.89
2018-04-02T09:32:52.127Z,100608.80
2018-04-02T09:35:20.227Z,100601.95
2018-04-02T09:37:48.318Z,100592.41
2018-04-02T09:40:16.447Z,100593.08
2018-04-02T09:42:44.555Z,100590.41
2018-04-02T09:45:13.203Z,100583.63
2018-04-02T09:47:41.340Z,100573.75
2018-04-02T09:50:09.416Z,100567.38
2018-04-02T09:52:37.527Z,100570.53
2018-04-02T09:55:06.112Z,100567.81
2018-04-02T10:10:29.463Z,100541.34
2018-04-02T10:12:57.534Z,100534.79
2018-04-02T10:15:26.427Z,100536.67
2018-04-02T10:17:54.548Z,100539.89
2018-04-02T10:20:22.675Z,100542.77
2018-04-02T10:22:51.097Z,100535.61
2018-04-02T10:25:19.317Z,100545.89
2018-04-02T10:27:47.417Z,100531.61
2018-04-02T10:30:16.379Z,100536.70
2018-04-02T10:32:44.552Z,100532.03
2018-04-02T10:35:12.643Z,100531.03
2018-04-02T10:37:41.582Z,100528.69
2018-04-02T10:40:10.679Z,100516.84
2018-04-02T10:42:38.782Z,100511.97
2018-04-02T10:45:06.923Z,100502.48
2018-04-02T10:47:35.033Z,100498.22
2018-04-02T10:50:04.125Z,100495.26
2018-04-02T11:05:26.185Z,100486.36
2018-04-02T11:07:54.489Z,100482.28
2018-04-02T11:10:22.595Z,100477.22
2018-04-02T11:12:50.695Z,100475.38
2018-04-02T11:28:10.123Z,100448.05
2018-04-02T11:30:38.262Z,100447.77
2018-04-02T11:33:06.394Z,100437.77
2018-04-02T11:35:34.532Z,100435.74
2018-04-02T11:38:02.681Z,100419.20
2018-04-02T11:40:31.342Z,100419.42
2018-04-02T11:42:59.457Z,100417.80
2018-04-02T11:45:27.568Z,100414.02
2018-04-02T11:47:56.295Z,100407.52
2018-04-02T11:50:24.480Z,100396.97
2018-04-02T11:52:52.579Z,100398.37
2018-04-02T11:55:20.775Z,100390.96
2018-04-02T11:57:48.903Z,100396.18
2018-04-02T12:00:17.005Z,100385.61
2018-04-02T12:02:45.163Z,100382.78
2018-04-02T12:05:13.296Z,100384.68
2018-04-02T12:07:42.457Z,100375.95
2018-04-02T12:10:10.566Z,100375.59
2018-04-02T12:12:38.695Z,100368.88
2018-04-02T12:15:06.943Z,100369.28
2018-04-02T12:17:35.062Z,100365.88
2018-04-02T12:20:03.264Z,100358.86
2018-04-02T12:22:31.375Z,100348.93
2018-04-02T12:24:59.549Z,100358.72
2018-04-02T12:27:27.637Z,100351.55
2018-04-02T12:29:56.301Z,100354.09
2018-04-02T12:32:24.507Z,100349.35
2018-04-02T12:34:52.597Z,100342.66
2018-04-02T12:37:21.632Z,100342.58
2018-04-02T12:39:49.737Z,100343.60
2018-04-02T12:42:17.883Z,100334.83
2018-04-02T12:44:46.012Z,100330.64
2018-04-02T12:47:14.121Z,100331.44
2018-04-02T12:49:42.753Z,100328.53
2018-04-02T12:52:11.121Z,100321.86
2018-04-02T12:54:39.229Z,100317.61
2018-04-02T12:57:07.352Z,100310.22
2018-04-02T12:59:35.556Z,100299.61
2018-04-02T13:02:03.684Z,100298.44
2018-04-02T13:04:31.806Z,100294.55
2018-04-02T13:06:59.967Z,100289.16
2018-04-02T13:09:28.055Z,100290.03
2018-04-02T13:11:56.154Z,100285.13
2018-04-02T13:14:24.281Z,100283.12
2018-04-02T13:16:52.408Z,100282.52
2018-04-02T13:19:20.631Z,100279.44
2018-04-02T13:21:49.644Z,100266.34
2018-04-02T13:24:18.592Z,100253.87
2018-04-02T13:26:46.735Z,100248.27
2018-04-02T13:29:14.836Z,100244.88
2018-04-02T13:31:42.945Z,100245.16
2018-04-02T13:34:11.392Z,100238.42
2018-04-02T13:36:39.488Z,100230.07
2018-04-02T13:39:07.651Z,100212.81
2018-04-02T13:41:36.601Z,100208.22
2018-04-02T13:56:54.707Z,100185.97
2018-04-02T13:59:22.825Z,100175.41
2018-04-02T14:01:50.949Z,100153.78
2018-04-02T14:04:19.048Z,100147.73
2018-04-02T14:06:47.159Z,100150.39
2018-04-02T14:22:11.114Z,100116.80
2018-04-02T14:24:40.434Z,100119.23
2018-04-02T14:27:08.474Z,100105.97
2018-04-02T14:29:36.823Z,100103.02
2018-04-02T14:32:04.948Z,100100.72
2018-04-02T14:34:33.954Z,100092.38
2018-04-02T14:37:02.583Z,100083.72
2018-04-02T14:39:30.710Z,100080.29
2018-04-02T14:41:58.803Z,100072.33
2018-04-02T14:44:26.991Z,100063.54
2018-04-02T14:46:55.102Z,100064.02
2018-04-02T14:49:23.205Z,100050.70
2018-04-02T14:51:51.301Z,100046.06
2018-04-02T14:54:19.492Z,100046.51
2018-04-02T14:56:47.560Z,100027.97
2018-04-02T14:59:15.710Z,100027.92
2018-04-02T15:01:43.906Z,100029.91
2018-04-02T15:04:11.995Z,100024.58
2018-04-02T15:06:40.744Z,100016.98
2018-04-02T15:09:08.852Z,100010.88
2018-04-02T15:11:36.992Z,100005.97
2018-04-02T15:14:06.089Z,99988.23
2018-04-02T15:16:34.184Z,99998.69
2018-04-02T15:19:02.348Z,99981.55
2018-04-02T15:21:30.433Z,99984.87
2018-04-02T15:23:58.758Z,99979.06
2018-04-02T15:26:26.842Z,99981.58
2018-04-02T15:28:54.932Z,99976.70
2018-04-02T15:31:23.063Z,99959.80
2018-04-02T15:33:51.142Z,99958.30
2018-04-02T15:36:19.881Z,99948.97
2018-04-02T15:38:48.315Z,99948.22
2018-04-02T15:41:16.414Z,99949.91
2018-04-02T15:43:44.520Z,99933.52
2018-04-02T15:46:12.663Z,99925.94
2018-04-02T15:48:41.025Z,99931.33
2018-04-02T15:51:10.015Z,99917.45
2018-04-02T15:53:38.127Z,99924.52
2018-04-02T15:56:06.882Z,99912.39
2018-04-02T15:58:34.957Z,99920.77
2018-04-02T16:01:03.121Z,99915.02
2018-04-02T16:03:31.296Z,99913.48
2018-04-02T16:05:59.412Z,99910.44
2018-04-02T16:08:28.363Z,99908.17
2018-04-02T16:10:56.433Z,99908.60
2018-04-02T16:13:24.531Z,99901.37
2018-04-02T16:15:53.018Z,99902.19
2018-04-02T16:18:21.097Z,99892.08
2018-04-02T16:20:49.186Z,99894.03
2018-04-02T16:23:17.292Z,99888.80
2018-04-02T16:25:45.621Z,99888.55
2018-04-02T16:28:13.699Z,99885.93
2018-04-02T16:30:42.090Z,99880.97
2018-04-02T16:33:10.177Z,99878.78
2018-04-02T16:35:38.269Z,99870.40
2018-04-02T16:38:06.381Z,99870.59
2018-04-02T16:40:36.567Z,99867.28
2018-04-02T16:43:04.687Z,99865.02
2018-04-02T16:45:32.782Z,99862.80
2018-04-02T16:48:00.899Z,99868.44
2018-04-02T16:50:29.050Z,99859.56
2018-04-02T16:52:57.316Z,99861.83
2018-04-02T16:55:25.491Z,99866.79
2018-04-02T16:57:53.578Z,99863.36
2018-04-02T17:00:21.687Z,99862.48
2018-04-02T17:02:49.781Z,99856.20
2018-04-02T17:05:18.834Z,99861.20
2018-04-02T17:07:47.100Z,99853.63
2018-04-02T17:10:15.256Z,99852.44
2018-04-02T17:12:43.318Z,99857.66
2018-04-02T17:15:11.442Z,99850.98
2018-04-02T17:17:40.394Z,99847.78
2018-04-02T17:20:08.567Z,99853.66
2018-04-02T17:22:36.621Z,99854.77
2018-04-02T17:25:05.388Z,99854.77
2018-04-02T17:27:33.518Z,99856.83
2018-04-02T17:30:02.461Z,99848.87
2018-04-02T17:32:30.531Z,99853.02
2018-04-02T17:34:59.513Z,99850.88
2018-04-02T17:37:27.736Z,99853.20
2018-04-02T17:39:56.612Z,99850.29
2018-04-02T17:42:24.710Z,99851.93
2018-04-02T17:44:52.906Z,99847.52
2018-04-02T17:47:21.008Z,99849.05
2018-04-02T17:49:49.150Z,99845.12
2018-04-02T17:52:18.269Z,99852.45
2018-04-02T17:54:46.341Z,99850.98
2018-04-02T17:57:14.499Z,99847.38
2018-04-02T17:59:42.627Z,99845.78
2018-04-02T18:02:10.866Z,99849.66
2018-04-02T18:04:38.963Z,99845.31
2018-04-02T18:07:07.202Z,99850.13
2018-04-02T18:09:35.340Z,99848.59
2018-04-02T18:12:03.593Z,99854.05
2018-04-02T18:14:31.674Z,99858.08
2018-04-02T18:17:00.622Z,99855.02
2018-04-02T18:19:28.703Z,99864.30
2018-04-02T18:21:56.892Z,99864.52
2018-04-02T18:24:25.002Z,99868.59
2018-04-02T18:26:53.424Z,99874.67
2018-04-02T18:29:21.514Z,99881.16
2018-04-02T18:31:49.674Z,99892.47
2018-04-02T18:34:17.944Z,99884.58
2018-04-02T18:36:46.198Z,99882.35
2018-04-02T18:39:14.779Z,99875.12
2018-04-02T18:41:42.852Z,99863.75
2018-04-02T18:44:11.889Z,99870.16
2018-04-02T18:46:40.013Z,99866.52
2018-04-02T18:49:08.103Z,99866.84
2018-04-02T18:51:36.211Z,99863.95
2018-04-02T18:54:04.326Z,99867.55
2018-04-02T18:56:33.217Z,99868.84
2018-04-02T18:59:01.313Z,99862.27
2018-04-02T19:01:29.427Z,99871.23
2018-04-02T19:03:57.518Z,99873.39
2018-04-02T19:06:26.562Z,99872.25
2018-04-02T19:08:54.707Z,99869.25
2018-04-02T19:11:22.816Z,99880.52
2018-04-02T19:13:50.945Z,99877.80
2018-04-02T19:16:19.041Z,99873.31
2018-04-02T19:18:47.172Z,99878.17
2018-04-02T19:21:15.261Z,99888.23
2018-04-02T19:23:43.354Z,99883.85
2018-04-02T19:26:11.467Z,99880.29
2018-04-02T19:28:39.595Z,99880.94
2018-04-02T19:31:07.692Z,99878.05
2018-04-02T19:33:36.098Z,99881.57
2018-04-02T19:36:04.195Z,99882.39
2018-04-02T19:38:32.292Z,99884.91
2018-04-02T19:53:50.390Z,99870.14
2018-04-02T19:56:18.747Z,99871.48
2018-04-02T19:58:46.871Z,99862.95
2018-04-02T20:01:14.951Z,99866.48
2018-04-02T20:03:43.050Z,99871.09
2018-04-02T20:06:11.166Z,99865.21
2018-04-02T20:08:39.281Z,99863.45
2018-04-02T20:11:07.387Z,99861.06
2018-04-02T20:13:35.476Z,99862.53
2018-04-02T20:16:03.932Z,99858.97
2018-04-02T20:18:32.055Z,99857.38
2018-04-02T20:21:00.202Z,99853.78
2018-04-02T20:23:28.324Z,99846.27
2018-04-02T20:25:56.408Z,99846.27
2018-04-02T20:28:24.497Z,99846.23
2018-04-02T20:30:52.852Z,99843.98
2018-04-02T20:33:21.751Z,99843.98
2018-04-02T20:48:40.747Z,99821.26
2018-04-02T20:51:08.844Z,99827.66
2018-04-02T20:53:36.955Z,99821.58
2018-04-02T20:56:05.067Z,99819.86
2018-04-02T20:58:33.169Z,99823.33
2018-04-02T21:01:01.285Z,99826.39
2018-04-02T21:03:30.297Z,99824.39
2018-04-02T21:05:58.422Z,99824.20
2018-04-02T21:08:26.521Z,99823.39
2018-04-02T21:10:54.615Z,99824.99
2018-04-02T21:13:22.739Z,99825.58
2018-04-02T21:15:50.823Z,99827.21
2018-04-02T21:18:18.930Z,99818.16
2018-04-02T21:20:47.222Z,99821.19
2018-04-02T21:23:15.306Z,99826.52
2018-04-02T21:25:43.422Z,99825.05
2018-04-02T21:28:11.660Z,99825.55
2018-04-02T21:30:39.799Z,99827.99
2018-04-02T21:33:07.904Z,99821.94
2018-04-02T21:35:36.015Z,99819.38
2018-04-02T21:38:05.028Z,99820.33
2018-04-02T21:40:33.157Z,99823.33
2018-04-02T21:43:01.414Z,99821.31
2018-04-02T21:58:24.912Z,99826.41
2018-04-02T22:00:53.001Z,99822.00
2018-04-02T22:03:21.626Z,99825.92
2018-04-02T22:05:49.803Z,99826.15
2018-04-02T22:08:18.167Z,99826.51
2018-04-02T22:10:46.261Z,99822.27
2018-04-02T22:13:14.398Z,99820.13
2018-04-02T22:15:42.511Z,99817.23
2018-04-02T22:18:10.622Z,99822.78
2018-04-02T22:20:39.680Z,99824.70
2018-04-02T22:23:07.847Z,99816.41
2018-04-02T22:25:35.967Z,99813.92
2018-04-02T22:41:00.011Z,99816.43
2018-04-02T22:43:29.367Z,99806.44
2018-04-02T22:45:57.517Z,99814.08
2018-04-02T22:48:25.615Z,99818.55
2018-04-02T22:50:53.770Z,99812.77
2018-04-02T22:53:21.946Z,99808.91
2018-04-02T22:55:50.076Z,99816.03
2018-04-02T22:58:18.170Z,99810.52
2018-04-02T23:00:46.331Z,99816.52
2018-04-02T23:03:14.690Z,99812.47
2018-04-02T23:05:42.834Z,99809.47
2018-04-02T23:08:10.965Z,99808.83
2018-04-02T23:10:39.050Z,99811.59
2018-04-02T23:13:07.199Z,99805.94
2018-04-02T23:15:35.309Z,99807.26
2018-04-02T23:18:03.923Z,99801.48
2018-04-02T23:20:32.015Z,99799.40
2018-04-02T23:23:00.419Z,99806.34
2018-04-02T23:25:28.507Z,99799.06
2018-04-02T23:27:57.592Z,99802.34
2018-04-02T23:30:25.693Z,99798.42
2018-04-02T23:32:54.564Z,99798.14
2018-04-02T23:35:22.739Z,99795.09
2018-04-02T23:37:50.842Z,99798.84
2018-04-02T23:40:18.940Z,99801.74
2018-04-02T23:42:47.082Z,99799.41
2018-04-02T23:45:15.241Z,99794.03
2018-04-02T23:47:43.354Z,99797.13
2018-04-02T23:50:11.498Z,99802.19
2018-04-02T23:52:39.594Z,99803.42
2018-04-02T23:55:07.794Z,99803.45
2018-04-02T23:57:36.023Z,99806.95
